Time,TemperatureF,DewpointF,PressureIn,WindDirection,WindDirectionDegrees,WindSpeedMPH,WindSpeedGustMPH,Humidity,HourlyPrecipIn,Conditions,Clouds,dailyrainin,SolarRadiationWatts/m^2,SoftwareType,DateUTC
2013-01-19 00:04:00,40.3,22.6,30.18,ENE,65,0.0,2.0,49,0.00,,,0.00,0.0,meteohub,2013-01-19 07:04:00,
2013-01-19 00:09:00,39.9,22.8,30.17,ENE,65,0.0,2.0,50,0.00,,,0.00,0.0,meteohub,2013-01-19 07:09:00,
2013-01-19 00:14:00,39.7,22.6,30.17,ENE,65,1.0,1.0,50,0.00,,,0.00,0.0,meteohub,2013-01-19 07:14:00,
2013-01-19 00:19:00,39.7,22.6,30.17,ENE,65,1.0,1.0,50,0.00,,,0.00,0.0,meteohub,2013-01-19 07:19:00,
2013-01-19 00:24:00,39.6,23.0,30.17,ENE,65,0.0,1.0,51,0.00,,,0.00,0.0,meteohub,2013-01-19 07:24:00,
2013-01-19 00:29:00,39.4,22.8,30.17,ENE,65,1.0,1.0,51,0.00,,,0.00,0.0,meteohub,2013-01-19 07:29:00,
2013-01-19 00:34:00,39.0,22.8,30.17,ENE,65,0.0,1.0,52,0.00,,,0.00,0.0,meteohub,2013-01-19 07:34:00,
2013-01-19 00:39:00,38.8,22.6,30.17,ENE,65,0.0,1.0,52,0.00,,,0.00,0.0,meteohub,2013-01-19 07:39:00,
2013-01-19 00:44:00,38.7,22.6,30.17,ENE,65,0.0,1.0,52,0.00,,,0.00,0.0,meteohub,2013-01-19 07:44:00,
2013-01-19 00:49:00,38.7,22.6,30.17,ENE,65,1.0,1.0,52,0.00,,,0.00,0.0,meteohub,2013-01-19 07:49:00,
2013-01-19 00:54:00,38.5,21.9,30.17,ENE,65,0.0,1.0,51,0.00,,,0.00,0.0,meteohub,2013-01-19 07:54:00,
2013-01-19 00:59:00,38.3,21.2,30.17,ENE,65,1.0,1.0,50,0.00,,,0.00,0.0,meteohub,2013-01-19 07:59:00,
2013-01-19 01:04:00,38.1,20.7,30.17,ENE,65,0.0,2.0,49,0.00,,,0.00,0.0,meteohub,2013-01-19 08:04:00,
2013-01-19 01:09:00,37.8,21.2,30.17,ENE,65,0.0,2.0,51,0.00,,,0.00,0.0,meteohub,2013-01-19 08:09:00,
2013-01-19 01:14:00,37.6,21.9,30.17,ENE,65,0.0,2.0,53,0.00,,,0.00,0.0,meteohub,2013-01-19 08:14:00,
2013-01-19 01:19:00,37.4,21.4,30.17,ENE,65,0.0,2.0,52,0.00,,,0.00,0.0,meteohub,2013-01-19 08:19:00,
2013-01-19 01:24:00,37.2,21.7,30.17,ENE,65,1.0,2.0,53,0.00,,,0.00,0.0,meteohub,2013-01-19 08:24:00,
2013-01-19 01:29:00,37.2,21.7,30.17,ENE,65,0.0,2.0,53,0.00,,,0.00,0.0,meteohub,2013-01-19 08:29:00,
2013-01-19 01:34:00,37.0,20.7,30.17,ENE,65,1.0,1.0,51,0.00,,,0.00,0.0,meteohub,2013-01-19 08:34:00,
2013-01-19 01:39:00,37.2,21.2,30.17,ENE,65,1.0,2.0,52,0.00,,,0.00,0.0,meteohub,2013-01-19 08:39:00,
2013-01-19 01:44:00,37.2,20.3,30.18,ENE,65,0.0,2.0,50,0.00,,,0.00,0.0,meteohub,2013-01-19 08:44:00,
2013-01-19 01:49:00,37.2,21.7,30.17,ENE,65,0.0,2.0,53,0.00,,,0.00,0.0,meteohub,2013-01-19 08:49:00,
2013-01-19 01:54:00,37.0,21.6,30.18,ENE,65,0.0,2.0,53,0.00,,,0.00,0.0,meteohub,2013-01-19 08:54:00,
2013-01-19 01:59:00,36.9,20.5,30.18,East,93,1.0,2.0,51,0.00,,,0.00,0.0,meteohub,2013-01-19 08:59:00,
2013-01-19 02:04:00,36.7,21.2,30.18,East,93,1.0,3.0,53,0.00,,,0.00,0.0,meteohub,2013-01-19 09:04:00,
2013-01-19 02:09:00,36.3,20.8,30.18,East,93,1.0,3.0,53,0.00,,,0.00,0.0,meteohub,2013-01-19 09:09:00,
2013-01-19 02:14:00,36.1,21.0,30.18,East,93,1.0,2.0,54,0.00,,,0.00,0.0,meteohub,2013-01-19 09:14:00,
2013-01-19 02:19:00,36.0,20.1,30.18,East,93,1.0,1.0,52,0.00,,,0.00,0.0,meteohub,2013-01-19 09:19:00,
2013-01-19 02:24:00,35.6,20.7,30.18,East,93,1.0,2.0,54,0.00,,,0.00,0.0,meteohub,2013-01-19 09:24:00,
2013-01-19 02:29:00,35.6,20.7,30.17,East,93,0.0,2.0,54,0.00,,,0.00,0.0,meteohub,2013-01-19 09:29:00,
2013-01-19 02:34:00,35.4,20.5,30.17,East,93,0.0,2.0,54,0.00,,,0.00,0.0,meteohub,2013-01-19 09:34:00,
2013-01-19 02:39:00,35.4,20.8,30.18,East,93,1.0,2.0,55,0.00,,,0.00,0.0,meteohub,2013-01-19 09:39:00,
2013-01-19 02:44:00,35.2,20.3,30.17,East,90,1.0,2.0,54,0.00,,,0.00,0.0,meteohub,2013-01-19 09:44:00,
2013-01-19 02:49:00,35.6,20.7,30.17,East,85,0.0,2.0,54,0.00,,,0.00,0.0,meteohub,2013-01-19 09:49:00,
2013-01-19 02:54:00,35.4,20.8,30.17,East,85,0.0,2.0,55,0.00,,,0.00,0.0,meteohub,2013-01-19 09:54:00,
2013-01-19 02:59:00,35.2,20.3,30.17,East,85,0.0,2.0,54,0.00,,,0.00,0.0,meteohub,2013-01-19 09:59:00,
2013-01-19 03:04:00,35.2,20.7,30.17,East,85,1.0,2.0,55,0.00,,,0.00,0.0,meteohub,2013-01-19 10:04:00,
2013-01-19 03:09:00,35.1,20.5,30.17,East,85,0.0,2.0,55,0.00,,,0.00,0.0,meteohub,2013-01-19 10:09:00,
2013-01-19 03:14:00,34.9,20.3,30.17,East,85,0.0,2.0,55,0.00,,,0.00,0.0,meteohub,2013-01-19 10:14:00,
2013-01-19 03:19:00,34.7,21.0,30.18,East,85,0.0,2.0,57,0.00,,,0.00,0.0,meteohub,2013-01-19 10:19:00,
2013-01-19 03:24:00,34.5,20.5,30.18,East,85,0.0,2.0,56,0.00,,,0.00,0.0,meteohub,2013-01-19 10:24:00,
2013-01-19 03:29:00,34.3,20.3,30.18,East,85,0.0,2.0,56,0.00,,,0.00,0.0,meteohub,2013-01-19 10:29:00,
2013-01-19 03:34:00,34.3,20.7,30.18,East,85,0.0,2.0,57,0.00,,,0.00,0.0,meteohub,2013-01-19 10:34:00,
2013-01-19 03:39:00,34.2,20.5,30.18,East,85,1.0,1.0,57,0.00,,,0.00,0.0,meteohub,2013-01-19 10:39:00,
2013-01-19 03:44:00,34.0,19.9,30.18,East,85,1.0,1.0,56,0.00,,,0.00,0.0,meteohub,2013-01-19 10:44:00,
2013-01-19 03:49:00,34.0,19.9,30.18,East,85,1.0,2.0,56,0.00,,,0.00,0.0,meteohub,2013-01-19 10:49:00,
2013-01-19 03:54:00,33.8,19.8,30.18,East,85,1.0,2.0,56,0.00,,,0.00,0.0,meteohub,2013-01-19 10:54:00,
2013-01-19 03:59:00,33.6,19.9,30.18,East,85,1.0,2.0,57,0.00,,,0.00,0.0,meteohub,2013-01-19 10:59:00,
2013-01-19 04:04:00,33.8,20.1,30.18,East,85,0.0,1.0,57,0.00,,,0.00,0.0,meteohub,2013-01-19 11:04:00,
2013-01-19 04:09:00,34.2,20.1,30.18,East,85,0.0,2.0,56,0.00,,,0.00,0.0,meteohub,2013-01-19 11:09:00,
2013-01-19 05:47:00,32.4,19.6,30.19,East,85,1.0,2.0,59,0.00,,,0.00,0.0,meteohub,2013-01-19 12:47:00,
2013-01-19 05:48:00,32.4,19.9,30.19,East,85,0.0,2.0,60,0.00,,,0.00,0.0,meteohub,2013-01-19 12:48:00,
2013-01-19 05:53:00,32.4,19.9,30.19,East,85,0.0,2.0,60,0.00,,,0.00,0.0,meteohub,2013-01-19 12:53:00,
2013-01-19 05:58:00,32.2,19.9,30.19,East,85,1.0,1.0,60,0.00,,,0.00,0.0,meteohub,2013-01-19 12:58:00,
2013-01-19 06:03:00,32.2,19.9,30.19,East,85,0.0,2.0,60,0.00,,,0.00,0.0,meteohub,2013-01-19 13:03:00,
2013-01-19 06:09:00,32.2,19.4,30.19,East,85,0.0,2.0,59,0.00,,,0.00,0.0,meteohub,2013-01-19 13:09:00,
2013-01-19 06:14:00,32.4,19.2,30.19,East,85,0.0,2.0,58,0.00,,,0.00,0.0,meteohub,2013-01-19 13:14:00,
2013-01-19 06:19:00,32.5,20.1,30.19,East,85,0.0,1.0,60,0.00,,,0.00,0.0,meteohub,2013-01-19 13:19:00,
2013-01-19 06:24:00,32.4,20.5,30.19,East,85,0.0,1.0,61,0.00,,,0.00,0.0,meteohub,2013-01-19 13:24:00,
2013-01-19 06:29:00,32.2,19.0,30.19,East,85,0.0,2.0,58,0.00,,,0.00,0.0,meteohub,2013-01-19 13:29:00,
2013-01-19 06:34:00,31.8,20.3,30.19,East,85,1.0,2.0,62,0.00,,,0.00,0.0,meteohub,2013-01-19 13:34:00,
2013-01-19 06:39:00,31.6,19.8,30.19,East,85,1.0,2.0,61,0.00,,,0.00,0.0,meteohub,2013-01-19 13:39:00,
2013-01-19 06:44:00,31.6,20.1,30.19,East,85,0.0,3.0,62,0.00,,,0.00,0.0,meteohub,2013-01-19 13:44:00,
2013-01-19 06:49:00,31.5,19.9,30.19,East,85,1.0,3.0,62,0.00,,,0.00,0.0,meteohub,2013-01-19 13:49:00,
2013-01-19 06:54:00,31.5,20.7,30.19,East,85,0.0,3.0,64,0.00,,,0.00,0.0,meteohub,2013-01-19 13:54:00,
2013-01-19 06:59:00,31.3,20.8,30.20,East,85,1.0,2.0,65,0.00,,,0.00,0.0,meteohub,2013-01-19 13:59:00,
2013-01-19 07:04:00,31.6,19.4,30.20,East,85,1.0,2.0,60,0.00,,,0.00,0.0,meteohub,2013-01-19 14:04:00,
2013-01-19 07:09:00,32.2,19.9,30.20,East,85,0.0,2.0,60,0.00,,,0.00,0.0,meteohub,2013-01-19 14:09:00,
2013-01-19 07:14:00,32.4,20.5,30.20,East,85,0.0,2.0,61,0.00,,,0.00,0.0,meteohub,2013-01-19 14:14:00,
2013-01-19 07:19:00,32.4,19.6,30.21,East,86,2.0,2.0,59,0.00,,,0.00,0.0,meteohub,2013-01-19 14:19:00,
2013-01-19 07:24:00,32.5,20.1,30.21,East,86,0.0,1.0,60,0.00,,,0.00,5.0,meteohub,2013-01-19 14:24:00,
2013-01-19 07:29:00,32.4,19.9,30.21,East,86,0.0,2.0,60,0.00,,,0.00,9.0,meteohub,2013-01-19 14:29:00,
2013-01-19 07:34:00,32.4,20.5,30.22,East,86,0.0,2.0,61,0.00,,,0.00,11.0,meteohub,2013-01-19 14:34:00,
2013-01-19 07:39:00,32.2,20.3,30.22,East,86,0.0,1.0,61,0.00,,,0.00,12.0,meteohub,2013-01-19 14:39:00,
2013-01-19 07:44:00,32.2,19.4,30.22,East,80,1.0,1.0,59,0.00,,,0.00,14.0,meteohub,2013-01-19 14:44:00,
2013-01-19 07:49:00,32.5,19.8,30.22,ENE,77,0.0,2.0,59,0.00,,,0.00,18.0,meteohub,2013-01-19 14:49:00,
2013-01-19 07:54:00,32.5,20.1,30.22,ENE,77,1.0,2.0,60,0.00,,,0.00,19.0,meteohub,2013-01-19 14:54:00,
2013-01-19 07:59:00,32.7,20.8,30.22,ENE,77,1.0,2.0,61,0.00,,,0.00,21.0,meteohub,2013-01-19 14:59:00,
2013-01-19 08:04:00,33.3,21.7,30.22,ENE,77,1.0,1.0,62,0.00,,,0.00,23.0,meteohub,2013-01-19 15:04:00,
2013-01-19 08:09:00,34.0,22.6,30.23,ENE,77,0.0,1.0,63,0.00,,,0.00,79.0,meteohub,2013-01-19 15:09:00,
2013-01-19 08:14:00,35.1,23.4,30.22,ENE,77,0.0,1.0,62,0.00,,,0.00,98.0,meteohub,2013-01-19 15:14:00,
2013-01-19 08:19:00,36.7,23.4,30.22,ENE,77,0.0,1.0,58,0.00,,,0.00,116.0,meteohub,2013-01-19 15:19:00,
2013-01-19 08:24:00,38.5,23.4,30.23,ENE,77,0.0,1.0,54,0.00,,,0.00,137.0,meteohub,2013-01-19 15:24:00,
2013-01-19 08:29:00,40.5,23.7,30.23,ENE,77,0.0,2.0,51,0.00,,,0.00,158.0,meteohub,2013-01-19 15:29:00,
2013-01-19 08:34:00,42.4,22.6,30.24,ENE,77,0.0,2.0,45,0.00,,,0.00,181.0,meteohub,2013-01-19 15:34:00,
2013-01-19 08:39:00,44.2,23.2,30.24,ENE,77,0.0,2.0,43,0.00,,,0.00,204.0,meteohub,2013-01-19 15:39:00,
2013-01-19 08:44:00,45.9,20.5,30.24,ENE,77,1.0,1.0,36,0.00,,,0.00,223.0,meteohub,2013-01-19 15:44:00,
2013-01-19 08:49:00,46.9,22.1,30.24,ESE,103,1.0,2.0,37,0.00,,,0.00,243.0,meteohub,2013-01-19 15:49:00,
2013-01-19 08:54:00,47.5,21.9,30.24,SE,124,2.0,2.0,36,0.00,,,0.00,260.0,meteohub,2013-01-19 15:54:00,
2013-01-19 08:59:00,47.7,21.4,30.25,SE,125,1.0,3.0,35,0.00,,,0.00,276.0,meteohub,2013-01-19 15:59:00,
2013-01-19 09:04:00,47.8,20.8,30.24,SE,126,1.0,3.0,34,0.00,,,0.00,290.0,meteohub,2013-01-19 16:04:00,
2013-01-19 09:09:00,48.4,21.4,30.25,SE,127,1.0,3.0,34,0.00,,,0.00,308.0,meteohub,2013-01-19 16:09:00,
2013-01-19 09:14:00,48.9,20.3,30.25,SE,128,2.0,3.0,32,0.00,,,0.00,323.0,meteohub,2013-01-19 16:14:00,
2013-01-19 09:19:00,49.5,20.8,30.25,SSE,150,2.0,3.0,32,0.00,,,0.00,338.0,meteohub,2013-01-19 16:19:00,
2013-01-19 09:24:00,50.0,20.5,30.25,SSE,166,2.0,4.0,31,0.00,,,0.00,350.0,meteohub,2013-01-19 16:24:00,
2013-01-19 09:29:00,50.7,20.5,30.25,SSE,166,2.0,4.0,30,0.00,,,0.00,367.0,meteohub,2013-01-19 16:29:00,
2013-01-19 09:34:00,51.4,19.4,30.25,SSE,167,2.0,4.0,28,0.00,,,0.00,387.0,meteohub,2013-01-19 16:34:00,
2013-01-19 09:39:00,52.0,20.7,30.25,South,171,2.0,4.0,29,0.00,,,0.00,401.0,meteohub,2013-01-19 16:39:00,
2013-01-19 09:44:00,52.5,20.3,30.25,South,172,2.0,4.0,28,0.00,,,0.00,411.0,meteohub,2013-01-19 16:44:00,
2013-01-19 09:49:00,53.2,21.0,30.25,West,269,1.0,4.0,28,0.00,,,0.00,425.0,meteohub,2013-01-19 16:49:00,
2013-01-19 09:54:00,54.0,20.7,30.25,West,263,2.0,4.0,27,0.00,,,0.00,439.0,meteohub,2013-01-19 16:54:00,
2013-01-19 09:59:00,54.7,20.5,30.25,WSW,257,3.0,4.0,26,0.00,,,0.00,455.0,meteohub,2013-01-19 16:59:00,
2013-01-19 10:04:00,55.2,20.8,30.26,WSW,257,2.0,4.0,26,0.00,,,0.00,469.0,meteohub,2013-01-19 17:04:00,
2013-01-19 10:09:00,55.9,20.7,30.25,WSW,258,1.0,4.0,25,0.00,,,0.00,482.0,meteohub,2013-01-19 17:09:00,
2013-01-19 10:14:00,56.5,21.0,30.25,SW,234,1.0,4.0,25,0.00,,,0.00,492.0,meteohub,2013-01-19 17:14:00,
2013-01-19 10:19:00,57.0,21.6,30.25,WSW,242,2.0,4.0,25,0.00,,,0.00,506.0,meteohub,2013-01-19 17:19:00,
2013-01-19 10:25:00,57.6,21.0,30.25,SW,234,0.0,4.0,24,0.00,,,0.00,519.0,meteohub,2013-01-19 17:25:00,
2013-01-19 10:30:00,58.5,20.8,30.25,WSW,250,3.0,4.0,23,0.00,,,0.00,529.0,meteohub,2013-01-19 17:30:00,
2013-01-19 10:35:00,59.2,20.3,30.25,WSW,254,2.0,4.0,22,0.00,,,0.00,540.0,meteohub,2013-01-19 17:35:00,
2013-01-19 10:40:00,59.7,20.8,30.25,WSW,252,2.0,4.0,22,0.00,,,0.00,552.0,meteohub,2013-01-19 17:40:00,
2013-01-19 10:45:00,60.3,21.2,30.25,SW,231,2.0,4.0,22,0.00,,,0.00,563.0,meteohub,2013-01-19 17:45:00,
2013-01-19 10:50:00,60.8,20.7,30.25,WSW,250,2.0,4.0,21,0.00,,,0.00,573.0,meteohub,2013-01-19 17:50:00,
2013-01-19 10:55:00,61.3,19.9,30.25,West,271,3.0,5.0,20,0.00,,,0.00,582.0,meteohub,2013-01-19 17:55:00,
2013-01-19 11:00:00,61.9,20.3,30.25,WSW,258,3.0,5.0,20,0.00,,,0.00,591.0,meteohub,2013-01-19 18:00:00,
2013-01-19 11:05:00,62.2,19.4,30.24,West,259,4.0,5.0,19,0.00,,,0.00,599.0,meteohub,2013-01-19 18:05:00,
2013-01-19 11:10:00,63.0,18.9,30.24,SW,221,2.0,5.0,18,0.00,,,0.00,606.0,meteohub,2013-01-19 18:10:00,
2013-01-19 11:15:00,63.3,19.0,30.24,West,273,2.0,5.0,18,0.00,,,0.00,613.0,meteohub,2013-01-19 18:15:00,
2013-01-19 11:20:00,63.7,19.4,30.23,West,268,1.0,4.0,18,0.00,,,0.00,622.0,meteohub,2013-01-19 18:20:00,
2013-01-19 11:25:00,64.2,19.8,30.23,WSW,250,2.0,4.0,18,0.00,,,0.00,631.0,meteohub,2013-01-19 18:25:00,
2013-01-19 11:30:00,65.1,20.5,30.23,NW,306,2.0,4.0,18,0.00,,,0.00,638.0,meteohub,2013-01-19 18:30:00,
2013-01-19 11:35:00,65.7,19.6,30.22,WSW,247,3.0,5.0,17,0.00,,,0.00,643.0,meteohub,2013-01-19 18:35:00,
2013-01-19 11:41:00,65.8,19.8,30.22,West,263,2.0,5.0,17,0.00,,,0.00,650.0,meteohub,2013-01-19 18:41:00,
2013-01-19 11:46:00,66.6,19.0,30.22,WSW,258,4.0,5.0,16,0.00,,,0.00,656.0,meteohub,2013-01-19 18:46:00,
2013-01-19 11:52:00,67.1,18.0,30.21,WSW,258,3.0,4.0,15,0.00,,,0.00,661.0,meteohub,2013-01-19 18:52:00,
2013-01-19 11:57:00,67.3,18.0,30.21,NW,323,4.0,5.0,15,0.00,,,0.00,664.0,meteohub,2013-01-19 18:57:00,
2013-01-19 12:02:00,67.6,18.3,30.20,WNW,294,2.0,6.0,15,0.00,,,0.00,671.0,meteohub,2013-01-19 19:02:00,
2013-01-19 12:07:00,68.2,18.7,30.20,WSW,246,3.0,6.0,15,0.00,,,0.00,673.0,meteohub,2013-01-19 19:07:00,
2013-01-19 12:13:00,68.9,19.4,30.19,NW,326,3.0,6.0,15,0.00,,,0.00,673.0,meteohub,2013-01-19 19:13:00,
2013-01-19 12:18:00,69.4,18.1,30.19,West,265,5.0,5.0,14,0.00,,,0.00,677.0,meteohub,2013-01-19 19:18:00,
2013-01-19 12:23:00,69.8,18.5,30.19,NW,321,2.0,5.0,14,0.00,,,0.00,679.0,meteohub,2013-01-19 19:23:00,
2013-01-19 12:28:00,70.2,18.7,30.18,West,261,4.0,5.0,14,0.00,,,0.00,680.0,meteohub,2013-01-19 19:28:00,
2013-01-19 12:33:00,70.5,17.2,30.18,WSW,251,0.0,5.0,13,0.00,,,0.00,682.0,meteohub,2013-01-19 19:33:00,
2013-01-19 12:38:00,71.2,17.8,30.17,West,269,1.0,5.0,13,0.00,,,0.00,682.0,meteohub,2013-01-19 19:38:00,
2013-01-19 12:43:00,71.4,18.0,30.17,WSW,257,2.0,5.0,13,0.00,,,0.00,680.0,meteohub,2013-01-19 19:43:00,
2013-01-19 12:49:00,71.8,18.3,30.17,West,266,3.0,5.0,13,0.00,,,0.00,680.0,meteohub,2013-01-19 19:49:00,
2013-01-19 12:54:00,72.3,18.7,30.17,WSW,239,1.0,5.0,13,0.00,,,0.00,680.0,meteohub,2013-01-19 19:54:00,
2013-01-19 12:59:00,73.0,17.4,30.16,West,263,3.0,5.0,12,0.00,,,0.00,679.0,meteohub,2013-01-19 19:59:00,
2013-01-19 13:04:00,73.6,17.8,30.16,SSE,156,2.0,6.0,12,0.00,,,0.00,677.0,meteohub,2013-01-19 20:04:00,
2013-01-19 13:09:00,74.1,18.3,30.16,SSW,192,3.0,6.0,12,0.00,,,0.00,673.0,meteohub,2013-01-19 20:09:00,
2013-01-19 13:14:00,74.1,18.3,30.15,South,184,2.0,6.0,12,0.00,,,0.00,671.0,meteohub,2013-01-19 20:14:00,
2013-01-19 13:20:00,74.5,18.5,30.15,SSW,211,2.0,5.0,12,0.00,,,0.00,666.0,meteohub,2013-01-19 20:20:00,
2013-01-19 13:25:00,74.8,18.9,30.15,SSW,206,1.0,5.0,12,0.00,,,0.00,663.0,meteohub,2013-01-19 20:25:00,
2013-01-19 13:30:00,75.0,19.0,30.15,West,275,2.0,5.0,12,0.00,,,0.00,657.0,meteohub,2013-01-19 20:30:00,
2013-01-19 13:35:00,75.4,19.2,30.15,SSW,192,2.0,5.0,12,0.00,,,0.00,654.0,meteohub,2013-01-19 20:35:00,
2013-01-19 13:40:00,75.6,17.4,30.15,SW,232,1.0,5.0,11,0.00,,,0.00,649.0,meteohub,2013-01-19 20:40:00,
2013-01-19 13:45:00,75.9,17.6,30.15,North,5,0.0,5.0,11,0.00,,,0.00,640.0,meteohub,2013-01-19 20:45:00,
2013-01-19 13:50:00,76.3,19.9,30.14,West,259,1.0,5.0,12,0.00,,,0.00,635.0,meteohub,2013-01-19 20:50:00,
2013-01-19 13:55:00,76.3,19.9,30.14,SW,219,3.0,7.0,12,0.00,,,0.00,629.0,meteohub,2013-01-19 20:55:00,
2013-01-19 14:01:00,75.9,17.6,30.14,SW,221,4.0,7.0,11,0.00,,,0.00,624.0,meteohub,2013-01-19 21:01:00,
2013-01-19 14:06:00,75.9,21.6,30.14,NNW,333,5.0,7.0,13,0.00,,,0.00,617.0,meteohub,2013-01-19 21:06:00,
2013-01-19 14:11:00,75.7,21.4,30.14,NNW,346,0.0,6.0,13,0.00,,,0.00,605.0,meteohub,2013-01-19 21:11:00,
2013-01-19 14:17:00,76.3,21.7,30.14,West,261,2.0,5.0,13,0.00,,,0.00,599.0,meteohub,2013-01-19 21:17:00,
2013-01-19 14:22:00,76.5,25.3,30.14,North,5,2.0,6.0,15,0.00,,,0.00,587.0,meteohub,2013-01-19 21:22:00,
2013-01-19 14:27:00,76.6,23.9,30.14,West,264,3.0,6.0,14,0.00,,,0.00,577.0,meteohub,2013-01-19 21:27:00,
2013-01-19 14:32:00,76.5,27.0,30.14,WNW,286,2.0,6.0,16,0.00,,,0.00,570.0,meteohub,2013-01-19 21:32:00,
2013-01-19 14:37:00,76.6,23.9,30.14,SSW,200,2.0,5.0,14,0.00,,,0.00,557.0,meteohub,2013-01-19 21:37:00,
2013-01-19 14:43:00,77.4,24.4,30.14,SW,221,3.0,5.0,14,0.00,,,0.00,547.0,meteohub,2013-01-19 21:43:00,
2013-01-19 14:48:00,77.2,24.3,30.14,SW,217,4.0,7.0,14,0.00,,,0.00,538.0,meteohub,2013-01-19 21:48:00,
2013-01-19 14:53:00,77.0,24.1,30.14,WSW,237,1.0,7.0,14,0.00,,,0.00,520.0,meteohub,2013-01-19 21:53:00,
2013-01-19 15:02:00,77.7,23.0,30.14,South,188,2.0,6.0,13,0.00,,,0.00,499.0,meteohub,2013-01-19 22:02:00,
2013-01-19 15:09:00,77.7,23.0,30.14,East,90,1.0,6.0,13,0.00,,,0.00,482.0,meteohub,2013-01-19 22:09:00,
2013-01-19 15:14:00,77.7,21.0,30.13,West,271,3.0,6.0,12,0.00,,,0.00,471.0,meteohub,2013-01-19 22:14:00,
2013-01-19 15:19:00,76.8,22.3,30.13,ESE,107,1.0,5.0,13,0.00,,,0.00,461.0,meteohub,2013-01-19 22:19:00,
2013-01-19 15:24:00,76.6,22.1,30.13,East,98,1.0,5.0,13,0.00,,,0.00,448.0,meteohub,2013-01-19 22:24:00,
2013-01-19 15:29:00,76.8,22.3,30.13,West,264,3.0,5.0,13,0.00,,,0.00,427.0,meteohub,2013-01-19 22:29:00,
2013-01-19 15:34:00,77.0,22.5,30.13,West,261,1.0,5.0,13,0.00,,,0.00,413.0,meteohub,2013-01-19 22:34:00,
2013-01-19 15:39:00,77.4,22.6,30.13,SSW,201,3.0,5.0,13,0.00,,,0.00,397.0,meteohub,2013-01-19 22:39:00,
2013-01-19 15:44:00,77.4,22.6,30.13,WSW,255,2.0,7.0,13,0.00,,,0.00,383.0,meteohub,2013-01-19 22:44:00,
2013-01-19 15:49:00,77.2,22.5,30.13,NNE,30,1.0,7.0,13,0.00,,,0.00,366.0,meteohub,2013-01-19 22:49:00,
2013-01-19 15:54:00,77.4,20.8,30.13,WNW,302,2.0,7.0,12,0.00,,,0.00,350.0,meteohub,2013-01-19 22:54:00,
2013-01-19 16:00:00,77.2,22.5,30.13,SSW,198,1.0,5.0,13,0.00,,,0.00,334.0,meteohub,2013-01-19 23:00:00,
2013-01-19 16:05:00,77.2,22.5,30.13,SSE,148,0.0,4.0,13,0.00,,,0.00,316.0,meteohub,2013-01-19 23:05:00,
2013-01-19 16:10:00,77.2,22.5,30.13,SSW,213,2.0,4.0,13,0.00,,,0.00,299.0,meteohub,2013-01-19 23:10:00,
2013-01-19 16:15:00,76.8,22.3,30.13,West,266,2.0,8.0,13,0.00,,,0.00,279.0,meteohub,2013-01-19 23:15:00,
2013-01-19 16:20:00,76.8,22.3,30.13,SSW,209,4.0,8.0,13,0.00,,,0.00,258.0,meteohub,2013-01-19 23:20:00,
2013-01-19 16:25:00,76.5,21.9,30.13,West,263,2.0,8.0,13,0.00,,,0.00,241.0,meteohub,2013-01-19 23:25:00,
2013-01-19 16:30:00,76.3,21.7,30.13,WSW,250,4.0,6.0,13,0.00,,,0.00,218.0,meteohub,2013-01-19 23:30:00,
2013-01-19 16:36:00,75.6,23.0,30.13,SW,227,5.0,7.0,14,0.00,,,0.00,193.0,meteohub,2013-01-19 23:36:00,
2013-01-19 16:41:00,75.4,22.8,30.13,SSW,210,5.0,7.0,14,0.00,,,0.00,171.0,meteohub,2013-01-19 23:41:00,
2013-01-19 16:46:00,74.8,22.5,30.13,SW,226,2.0,7.0,14,0.00,,,0.00,146.0,meteohub,2013-01-19 23:46:00,
2013-01-19 16:51:00,74.7,22.3,30.13,WSW,239,5.0,7.0,14,0.00,,,0.00,128.0,meteohub,2013-01-19 23:51:00,
2013-01-19 16:57:00,74.3,23.7,30.13,SW,214,2.0,7.0,15,0.00,,,0.00,107.0,meteohub,2013-01-19 23:57:00,
2013-01-19 17:02:00,73.6,23.0,30.13,WSW,237,2.0,7.0,15,0.00,,,0.00,46.0,meteohub,2013-01-20 00:02:00,
2013-01-19 17:07:00,72.9,24.1,30.13,SW,226,3.0,7.0,16,0.00,,,0.00,25.0,meteohub,2013-01-20 00:07:00,
2013-01-19 17:12:00,72.3,23.5,30.13,SSW,212,1.0,7.0,16,0.00,,,0.00,23.0,meteohub,2013-01-20 00:12:00,
2013-01-19 17:17:00,72.0,23.4,30.13,SE,140,2.0,5.0,16,0.00,,,0.00,23.0,meteohub,2013-01-20 00:17:00,
2013-01-19 17:22:00,71.4,21.4,30.14,SE,138,0.0,4.0,15,0.00,,,0.00,19.0,meteohub,2013-01-20 00:22:00,
2013-01-19 17:27:00,71.2,21.2,30.14,SE,132,1.0,3.0,15,0.00,,,0.00,16.0,meteohub,2013-01-20 00:27:00,
2013-01-19 17:32:00,70.9,19.2,30.14,SE,140,0.0,4.0,14,0.00,,,0.00,12.0,meteohub,2013-01-20 00:32:00,
2013-01-19 17:37:00,70.5,19.0,30.14,SE,134,3.0,9.0,14,0.00,,,0.00,11.0,meteohub,2013-01-20 00:37:00,
2013-01-19 17:43:00,70.2,17.1,30.14,SE,136,0.0,9.0,13,0.00,,,0.00,7.0,meteohub,2013-01-20 00:43:00,
2013-01-19 17:48:00,69.4,18.1,30.14,ESE,115,1.0,9.0,14,0.00,,,0.00,5.0,meteohub,2013-01-20 00:48:00,
2013-01-19 17:53:00,68.7,17.6,30.14,SE,125,3.0,4.0,14,0.00,,,0.00,0.0,meteohub,2013-01-20 00:53:00,
2013-01-19 17:58:00,67.8,16.9,30.14,East,95,3.0,5.0,14,0.00,,,0.00,0.0,meteohub,2013-01-20 00:58:00,
2013-01-19 18:03:00,67.5,16.5,30.14,ESE,113,2.0,8.0,14,0.00,,,0.00,0.0,meteohub,2013-01-20 01:03:00,
2013-01-19 18:09:00,66.9,16.2,30.14,ESE,108,2.0,8.0,14,0.00,,,0.00,0.0,meteohub,2013-01-20 01:09:00,
2013-01-19 18:14:00,66.6,17.4,30.14,East,85,3.0,8.0,15,0.00,,,0.00,0.0,meteohub,2013-01-20 01:14:00,
2013-01-19 18:19:00,66.2,17.2,30.15,East,97,2.0,7.0,15,0.00,,,0.00,0.0,meteohub,2013-01-20 01:19:00,
2013-01-19 18:25:00,65.8,16.9,30.15,ESE,116,5.0,5.0,15,0.00,,,0.00,0.0,meteohub,2013-01-20 01:25:00,
2013-01-19 18:30:00,65.7,19.6,30.15,ESE,116,2.0,7.0,17,0.00,,,0.00,0.0,meteohub,2013-01-20 01:30:00,
2013-01-19 18:35:00,65.1,20.5,30.15,ESE,118,0.0,7.0,18,0.00,,,0.00,0.0,meteohub,2013-01-20 01:35:00,
2013-01-19 18:40:00,64.6,22.6,30.16,ESE,117,1.0,7.0,20,0.00,,,0.00,0.0,meteohub,2013-01-20 01:40:00,
2013-01-19 18:45:00,64.0,23.4,30.16,ESE,117,2.0,3.0,21,0.00,,,0.00,0.0,meteohub,2013-01-20 01:45:00,
2013-01-19 18:50:00,63.7,24.1,30.16,ESE,117,0.0,3.0,22,0.00,,,0.00,0.0,meteohub,2013-01-20 01:50:00,
2013-01-19 18:55:00,63.0,23.5,30.16,ESE,117,1.0,2.0,22,0.00,,,0.00,0.0,meteohub,2013-01-20 01:55:00,
2013-01-19 19:01:00,62.2,23.9,30.16,ESE,117,0.0,2.0,23,0.00,,,0.00,0.0,meteohub,2013-01-20 02:01:00,
2013-01-19 19:07:00,61.0,23.9,30.16,ESE,122,1.0,3.0,24,0.00,,,0.00,0.0,meteohub,2013-01-20 02:07:00,
2013-01-19 19:12:00,60.3,23.4,30.16,ESE,121,0.0,3.0,24,0.00,,,0.00,0.0,meteohub,2013-01-20 02:12:00,
2013-01-19 19:17:00,59.5,21.7,30.16,ESE,121,1.0,3.0,23,0.00,,,0.00,0.0,meteohub,2013-01-20 02:17:00,
2013-01-19 19:22:00,59.5,20.7,30.16,ESE,121,0.0,2.0,22,0.00,,,0.00,0.0,meteohub,2013-01-20 02:22:00,
2013-01-19 19:28:00,58.5,21.7,30.16,ESE,121,0.0,2.0,24,0.00,,,0.00,0.0,meteohub,2013-01-20 02:28:00,
2013-01-19 19:33:00,57.4,23.7,30.16,ESE,121,0.0,2.0,27,0.00,,,0.00,0.0,meteohub,2013-01-20 02:33:00,
2013-01-19 19:38:00,56.1,24.3,30.17,ESE,121,0.0,2.0,29,0.00,,,0.00,0.0,meteohub,2013-01-20 02:38:00,
2013-01-19 19:43:00,55.0,24.1,30.17,ESE,121,0.0,2.0,30,0.00,,,0.00,0.0,meteohub,2013-01-20 02:43:00,
2013-01-19 19:49:00,54.0,24.1,30.17,ESE,121,0.0,1.0,31,0.00,,,0.00,0.0,meteohub,2013-01-20 02:49:00,
2013-01-19 19:54:00,53.1,23.9,30.16,ESE,121,0.0,2.0,32,0.00,,,0.00,0.0,meteohub,2013-01-20 02:54:00,
2013-01-19 19:59:00,52.3,23.4,30.17,ESE,121,0.0,2.0,32,0.00,,,0.00,0.0,meteohub,2013-01-20 02:59:00,
2013-01-19 20:04:00,51.6,23.4,30.17,ESE,121,0.0,2.0,33,0.00,,,0.00,0.0,meteohub,2013-01-20 03:04:00,
2013-01-19 20:09:00,51.3,23.2,30.17,ESE,103,1.0,2.0,33,0.00,,,0.00,0.0,meteohub,2013-01-20 03:09:00,
2013-01-19 20:14:00,50.7,22.6,30.17,ENE,68,3.0,3.0,33,0.00,,,0.00,0.0,meteohub,2013-01-20 03:14:00,
2013-01-19 20:19:00,50.5,23.2,30.17,ENE,67,0.0,3.0,34,0.00,,,0.00,0.0,meteohub,2013-01-20 03:19:00,
2013-01-19 20:24:00,50.4,23.7,30.17,ENE,67,0.0,3.0,35,0.00,,,0.00,0.0,meteohub,2013-01-20 03:24:00,
2013-01-19 20:29:00,50.0,23.4,30.17,ENE,67,1.0,3.0,35,0.00,,,0.00,0.0,meteohub,2013-01-20 03:29:00,
2013-01-19 20:34:00,50.4,23.0,30.17,ENE,66,1.0,2.0,34,0.00,,,0.00,0.0,meteohub,2013-01-20 03:34:00,
2013-01-19 20:39:00,50.9,22.8,30.17,ENE,67,0.0,2.0,33,0.00,,,0.00,0.0,meteohub,2013-01-20 03:39:00,
2013-01-19 20:44:00,51.4,23.4,30.17,ENE,67,1.0,2.0,33,0.00,,,0.00,0.0,meteohub,2013-01-20 03:44:00,
2013-01-19 20:49:00,52.0,24.4,30.18,NNE,28,2.0,2.0,34,0.00,,,0.00,0.0,meteohub,2013-01-20 03:49:00,
2013-01-19 20:54:00,52.9,23.9,30.18,North,5,2.0,3.0,32,0.00,,,0.00,0.0,meteohub,2013-01-20 03:54:00,
2013-01-19 21:00:00,53.2,24.1,30.18,North,5,1.0,4.0,32,0.00,,,0.00,0.0,meteohub,2013-01-20 04:00:00,
2013-01-19 21:05:00,53.6,23.7,30.18,North,5,2.0,4.0,31,0.00,,,0.00,0.0,meteohub,2013-01-20 04:05:00,
2013-01-19 21:10:00,54.1,24.1,30.18,NNW,348,1.0,4.0,31,0.00,,,0.00,0.0,meteohub,2013-01-20 04:10:00,
2013-01-19 21:15:00,54.3,24.3,30.18,NNW,338,1.0,3.0,31,0.00,,,0.00,0.0,meteohub,2013-01-20 04:15:00,
2013-01-19 21:20:00,54.5,23.7,30.19,NW,321,1.0,5.0,30,0.00,,,0.00,0.0,meteohub,2013-01-20 04:20:00,
2013-01-19 21:25:00,54.3,23.5,30.19,WNW,301,1.0,5.0,30,0.00,,,0.00,0.0,meteohub,2013-01-20 04:25:00,
2013-01-19 21:30:00,54.1,24.1,30.19,WNW,301,1.0,3.0,31,0.00,,,0.00,0.0,meteohub,2013-01-20 04:30:00,
2013-01-19 21:35:00,53.8,23.9,30.19,WNW,303,1.0,3.0,31,0.00,,,0.00,0.0,meteohub,2013-01-20 04:35:00,
2013-01-19 21:40:00,53.4,23.5,30.19,NW,308,2.0,3.0,31,0.00,,,0.00,0.0,meteohub,2013-01-20 04:40:00,
2013-01-19 21:45:00,53.4,23.5,30.19,NW,316,1.0,3.0,31,0.00,,,0.00,0.0,meteohub,2013-01-20 04:45:00,
2013-01-19 21:50:00,53.2,24.1,30.19,NW,315,0.0,3.0,32,0.00,,,0.00,0.0,meteohub,2013-01-20 04:50:00,
2013-01-19 21:55:00,53.1,23.9,30.19,NW,315,0.0,3.0,32,0.00,,,0.00,0.0,meteohub,2013-01-20 04:55:00,
2013-01-19 22:00:00,53.2,24.1,30.19,NW,313,2.0,3.0,32,0.00,,,0.00,0.0,meteohub,2013-01-20 05:00:00,
2013-01-19 22:01:00,53.2,24.1,30.19,NW,310,3.0,4.0,32,0.00,,,0.00,0.0,meteohub,2013-01-20 05:01:00,
2013-01-19 22:02:00,53.4,24.3,30.19,NW,310,3.0,4.0,32,0.00,,,0.00,0.0,meteohub,2013-01-20 05:02:00,
2013-01-19 22:03:00,53.4,24.3,30.19,NW,310,0.0,4.0,32,0.00,,,0.00,0.0,meteohub,2013-01-20 05:03:00,
2013-01-19 22:08:00,53.8,23.9,30.19,NW,309,2.0,4.0,31,0.00,,,0.00,0.0,meteohub,2013-01-20 05:08:00,
2013-01-19 22:13:00,54.1,24.1,30.19,NW,313,1.0,4.0,31,0.00,,,0.00,0.0,meteohub,2013-01-20 05:13:00,
2013-01-19 22:18:00,54.1,24.1,30.19,NW,313,2.0,4.0,31,0.00,,,0.00,0.0,meteohub,2013-01-20 05:18:00,
2013-01-19 22:23:00,54.1,24.1,30.19,NW,313,0.0,3.0,31,0.00,,,0.00,0.0,meteohub,2013-01-20 05:23:00,
2013-01-19 22:28:00,53.8,23.9,30.19,NW,313,0.0,3.0,31,0.00,,,0.00,0.0,meteohub,2013-01-20 05:28:00,
2013-01-19 22:33:00,53.2,24.1,30.19,NW,313,1.0,2.0,32,0.00,,,0.00,0.0,meteohub,2013-01-20 05:33:00,
2013-01-19 22:38:00,52.3,23.4,30.19,NW,313,0.0,1.0,32,0.00,,,0.00,0.0,meteohub,2013-01-20 05:38:00,
2013-01-19 22:43:00,51.1,24.4,30.19,NW,313,0.0,1.0,35,0.00,,,0.00,0.0,meteohub,2013-01-20 05:43:00,
2013-01-19 22:48:00,49.8,23.9,30.19,NW,313,1.0,2.0,36,0.00,,,0.00,0.0,meteohub,2013-01-20 05:48:00,
2013-01-19 22:53:00,49.1,23.9,30.19,NW,313,1.0,2.0,37,0.00,,,0.00,0.0,meteohub,2013-01-20 05:53:00,
2013-01-19 22:58:00,48.6,24.8,30.19,NW,313,0.0,2.0,39,0.00,,,0.00,0.0,meteohub,2013-01-20 05:58:00,
2013-01-19 23:03:00,47.8,23.5,30.19,NW,313,1.0,2.0,38,0.00,,,0.00,0.0,meteohub,2013-01-20 06:03:00,
2013-01-19 23:08:00,47.8,24.1,30.19,NW,313,0.0,2.0,39,0.00,,,0.00,0.0,meteohub,2013-01-20 06:08:00,
2013-01-19 23:13:00,47.7,25.2,30.19,NW,313,0.0,2.0,41,0.00,,,0.00,0.0,meteohub,2013-01-20 06:13:00,
2013-01-19 23:18:00,47.1,24.6,30.19,NW,313,1.0,2.0,41,0.00,,,0.00,0.0,meteohub,2013-01-20 06:18:00,
2013-01-19 23:23:00,46.8,24.8,30.19,NW,313,1.0,2.0,42,0.00,,,0.00,0.0,meteohub,2013-01-20 06:23:00,
2013-01-19 23:28:00,46.0,24.8,30.19,NW,313,0.0,2.0,43,0.00,,,0.00,0.0,meteohub,2013-01-20 06:28:00,
2013-01-19 23:34:00,45.7,24.4,30.19,NW,313,0.0,2.0,43,0.00,,,0.00,0.0,meteohub,2013-01-20 06:34:00,
2013-01-19 23:39:00,45.1,24.4,30.19,NW,313,1.0,2.0,44,0.00,,,0.00,0.0,meteohub,2013-01-20 06:39:00,
2013-01-19 23:44:00,44.4,24.4,30.19,NW,313,0.0,2.0,45,0.00,,,0.00,0.0,meteohub,2013-01-20 06:44:00,
2013-01-19 23:49:00,44.1,24.1,30.19,NW,313,1.0,2.0,45,0.00,,,0.00,0.0,meteohub,2013-01-20 06:49:00,
2013-01-19 23:54:00,43.7,24.3,30.19,NW,313,0.0,2.0,46,0.00,,,0.00,0.0,meteohub,2013-01-20 06:54:00,
2013-01-19 23:59:00,43.3,24.4,30.19,NW,313,0.0,2.0,47,0.00,,,0.00,0.0,meteohub,2013-01-20 06:59:00,